sensor_id;sensor_type;location;lat;lon;timestamp;temperature;humidity
17565;DHT22;62994;52.126;5.596;2023-08-06T00:00:48;17.10;99.90
17565;DHT22;62994;52.126;5.596;2023-08-06T00:03:15;17.10;99.90
17565;DHT22;62994;52.126;5.596;2023-08-06T00:05:42;17.10;99.90
17565;DHT22;62994;52.126;5.596;2023-08-06T00:08:11;17.10;99.90
17565;DHT22;62994;52.126;5.596;2023-08-06T00:10:39;17.10;99.90
17565;DHT22;62994;52.126;5.596;2023-08-06T00:13:08;17.20;99.90
17565;DHT22;62994;52.126;5.596;2023-08-06T00:15:36;17.10;99.90
17565;DHT22;62994;52.126;5.596;2023-08-06T00:18:03;17.20;99.90
17565;DHT22;62994;52.126;5.596;2023-08-06T00:20:30;17.20;99.90
17565;DHT22;62994;52.126;5.596;2023-08-06T00:22:57;17.20;99.90
17565;DHT22;62994;52.126;5.596;2023-08-06T00:25:24;17.20;99.90
17565;DHT22;62994;52.126;5.596;2023-08-06T00:27:54;17.20;99.90
17565;DHT22;62994;52.126;5.596;2023-08-06T00:30:33;17.20;99.90
17565;DHT22;62994;52.126;5.596;2023-08-06T00:33:00;17.20;99.90
17565;DHT22;62994;52.126;5.596;2023-08-06T00:35:28;17.20;99.90
17565;DHT22;62994;52.126;5.596;2023-08-06T00:37:58;17.20;99.90
17565;DHT22;62994;52.126;5.596;2023-08-06T00:40:25;17.20;99.90
17565;DHT22;62994;52.126;5.596;2023-08-06T00:42:54;17.20;99.90
17565;DHT22;62994;52.126;5.596;2023-08-06T00:45:23;17.20;99.90
17565;DHT22;62994;52.126;5.596;2023-08-06T00:47:50;17.10;99.90
17565;DHT22;62994;52.126;5.596;2023-08-06T00:50:18;17.10;99.90
17565;DHT22;62994;52.126;5.596;2023-08-06T00:52:47;17.10;99.90
17565;DHT22;62994;52.126;5.596;2023-08-06T00:55:15;17.10;99.90
17565;DHT22;62994;52.126;5.596;2023-08-06T00:57:43;17.10;99.90
17565;DHT22;62994;52.126;5.596;2023-08-06T01:00:14;17.10;99.90
17565;DHT22;62994;52.126;5.596;2023-08-06T01:02:43;17.10;99.90
17565;DHT22;62994;52.126;5.596;2023-08-06T01:05:13;17.00;99.90
17565;DHT22;62994;52.126;5.596;2023-08-06T01:07:51;17.00;99.90
17565;DHT22;62994;52.126;5.596;2023-08-06T01:10:38;17.10;99.90
17565;DHT22;62994;52.126;5.596;2023-08-06T01:13:18;17.10;99.90
17565;DHT22;62994;52.126;5.596;2023-08-06T01:15:50;17.10;99.90
17565;DHT22;62994;52.126;5.596;2023-08-06T01:18:20;17.00;99.90
17565;DHT22;62994;52.126;5.596;2023-08-06T01:20:49;17.00;99.90
17565;DHT22;62994;52.126;5.596;2023-08-06T01:23:17;17.00;99.90
17565;DHT22;62994;52.126;5.596;2023-08-06T01:25:53;17.00;99.90
17565;DHT22;62994;52.126;5.596;2023-08-06T01:28:40;17.00;99.90
17565;DHT22;62994;52.126;5.596;2023-08-06T01:31:18;17.00;99.90
17565;DHT22;62994;52.126;5.596;2023-08-06T01:33:47;16.90;99.90
17565;DHT22;62994;52.126;5.596;2023-08-06T01:36:17;16.90;99.90
17565;DHT22;62994;52.126;5.596;2023-08-06T01:38:46;16.90;99.90
17565;DHT22;62994;52.126;5.596;2023-08-06T01:41:13;16.90;99.90
17565;DHT22;62994;52.126;5.596;2023-08-06T01:43:42;16.90;99.90
17565;DHT22;62994;52.126;5.596;2023-08-06T01:46:10;16.90;99.90
17565;DHT22;62994;52.126;5.596;2023-08-06T01:48:38;16.90;99.90
17565;DHT22;62994;52.126;5.596;2023-08-06T01:51:06;16.90;99.90
17565;DHT22;62994;52.126;5.596;2023-08-06T01:53:35;16.80;99.90
17565;DHT22;62994;52.126;5.596;2023-08-06T01:56:05;16.80;99.90
17565;DHT22;62994;52.126;5.596;2023-08-06T01:58:33;16.80;99.90
17565;DHT22;62994;52.126;5.596;2023-08-06T02:01:01;16.80;99.90
17565;DHT22;62994;52.126;5.596;2023-08-06T02:03:28;16.80;99.90
17565;DHT22;62994;52.126;5.596;2023-08-06T02:05:56;16.70;99.90
17565;DHT22;62994;52.126;5.596;2023-08-06T02:08:28;16.70;99.90
17565;DHT22;62994;52.126;5.596;2023-08-06T02:10:56;16.60;99.90
17565;DHT22;62994;52.126;5.596;2023-08-06T02:13:24;16.60;99.90
17565;DHT22;62994;52.126;5.596;2023-08-06T02:15:52;16.60;99.90
17565;DHT22;62994;52.126;5.596;2023-08-06T02:18:21;16.60;99.90
17565;DHT22;62994;52.126;5.596;2023-08-06T02:20:55;16.60;99.90
17565;DHT22;62994;52.126;5.596;2023-08-06T02:23:23;16.60;99.90
17565;DHT22;62994;52.126;5.596;2023-08-06T02:25:58;16.70;99.90
17565;DHT22;62994;52.126;5.596;2023-08-06T02:28:31;16.70;99.90
17565;DHT22;62994;52.126;5.596;2023-08-06T02:30:58;16.70;99.90
17565;DHT22;62994;52.126;5.596;2023-08-06T02:33:25;16.60;99.90
17565;DHT22;62994;52.126;5.596;2023-08-06T02:36:01;16.70;99.90
17565;DHT22;62994;52.126;5.596;2023-08-06T02:38:29;16.70;99.90
17565;DHT22;62994;52.126;5.596;2023-08-06T02:41:04;16.70;99.90
17565;DHT22;62994;52.126;5.596;2023-08-06T02:43:31;16.70;99.90
17565;DHT22;62994;52.126;5.596;2023-08-06T02:45:58;16.70;99.90
17565;DHT22;62994;52.126;5.596;2023-08-06T02:48:25;16.70;99.90
17565;DHT22;62994;52.126;5.596;2023-08-06T02:50:52;16.70;99.90
17565;DHT22;62994;52.126;5.596;2023-08-06T02:53:19;16.70;99.90
17565;DHT22;62994;52.126;5.596;2023-08-06T02:55:47;16.70;99.90
17565;DHT22;62994;52.126;5.596;2023-08-06T02:58:21;16.70;99.90
17565;DHT22;62994;52.126;5.596;2023-08-06T03:00:59;16.70;99.90
17565;DHT22;62994;52.126;5.596;2023-08-06T03:03:27;16.70;99.90
17565;DHT22;62994;52.126;5.596;2023-08-06T03:05:54;16.70;99.90
17565;DHT22;62994;52.126;5.596;2023-08-06T03:08:21;16.70;99.90
17565;DHT22;62994;52.126;5.596;2023-08-06T03:10:49;16.70;99.90
17565;DHT22;62994;52.126;5.596;2023-08-06T03:13:17;16.70;99.90
17565;DHT22;62994;52.126;5.596;2023-08-06T03:15:51;16.80;99.90
17565;DHT22;62994;52.126;5.596;2023-08-06T03:18:19;16.70;99.90
17565;DHT22;62994;52.126;5.596;2023-08-06T03:20:46;16.80;99.90
17565;DHT22;62994;52.126;5.596;2023-08-06T03:23:12;16.80;99.90
17565;DHT22;62994;52.126;5.596;2023-08-06T03:25:39;16.80;99.90
17565;DHT22;62994;52.126;5.596;2023-08-06T03:28:06;16.80;99.90
17565;DHT22;62994;52.126;5.596;2023-08-06T03:30:33;16.80;99.90
17565;DHT22;62994;52.126;5.596;2023-08-06T03:33:02;16.80;99.90
17565;DHT22;62994;52.126;5.596;2023-08-06T03:35:30;16.90;99.90
17565;DHT22;62994;52.126;5.596;2023-08-06T03:37:57;16.90;99.90
17565;DHT22;62994;52.126;5.596;2023-08-06T03:40:24;16.90;99.90
17565;DHT22;62994;52.126;5.596;2023-08-06T03:42:51;16.90;99.90
17565;DHT22;62994;52.126;5.596;2023-08-06T03:45:18;16.90;99.90
17565;DHT22;62994;52.126;5.596;2023-08-06T03:47:47;16.90;99.90
17565;DHT22;62994;52.126;5.596;2023-08-06T03:50:15;17.00;99.90
17565;DHT22;62994;52.126;5.596;2023-08-06T03:52:42;17.00;99.90
17565;DHT22;62994;52.126;5.596;2023-08-06T03:55:09;17.00;99.90
17565;DHT22;62994;52.126;5.596;2023-08-06T03:57:36;17.00;99.90
17565;DHT22;62994;52.126;5.596;2023-08-06T04:00:08;17.10;99.90
17565;DHT22;62994;52.126;5.596;2023-08-06T04:02:35;17.10;99.90
17565;DHT22;62994;52.126;5.596;2023-08-06T04:05:02;17.10;99.90
17565;DHT22;62994;52.126;5.596;2023-08-06T04:07:31;17.10;99.90
17565;DHT22;62994;52.126;5.596;2023-08-06T04:09:59;17.10;99.90
17565;DHT22;62994;52.126;5.596;2023-08-06T04:12:26;17.10;99.90
17565;DHT22;62994;52.126;5.596;2023-08-06T04:15:00;17.10;99.90
17565;DHT22;62994;52.126;5.596;2023-08-06T04:17:28;17.10;99.90
17565;DHT22;62994;52.126;5.596;2023-08-06T04:19:55;17.10;99.90
17565;DHT22;62994;52.126;5.596;2023-08-06T04:22:26;17.10;99.90
17565;DHT22;62994;52.126;5.596;2023-08-06T04:24:54;17.10;99.90
17565;DHT22;62994;52.126;5.596;2023-08-06T04:27:21;17.10;99.90
17565;DHT22;62994;52.126;5.596;2023-08-06T04:29:58;17.10;99.90
17565;DHT22;62994;52.126;5.596;2023-08-06T04:32:25;17.10;99.90
17565;DHT22;62994;52.126;5.596;2023-08-06T04:34:52;17.10;99.90
17565;DHT22;62994;52.126;5.596;2023-08-06T04:37:19;17.10;99.90
17565;DHT22;62994;52.126;5.596;2023-08-06T04:39:50;17.10;99.90
17565;DHT22;62994;52.126;5.596;2023-08-06T04:42:18;17.10;99.90
17565;DHT22;62994;52.126;5.596;2023-08-06T04:44:45;17.10;99.90
17565;DHT22;62994;52.126;5.596;2023-08-06T04:47:12;17.10;99.90
17565;DHT22;62994;52.126;5.596;2023-08-06T04:49:39;17.10;99.90
17565;DHT22;62994;52.126;5.596;2023-08-06T04:52:07;17.20;99.90
17565;DHT22;62994;52.126;5.596;2023-08-06T04:54:38;17.20;99.90
17565;DHT22;62994;52.126;5.596;2023-08-06T04:57:06;17.20;99.90
17565;DHT22;62994;52.126;5.596;2023-08-06T04:59:34;17.20;99.90
17565;DHT22;62994;52.126;5.596;2023-08-06T05:02:01;17.20;99.90
17565;DHT22;62994;52.126;5.596;2023-08-06T05:04:28;17.20;99.90
17565;DHT22;62994;52.126;5.596;2023-08-06T05:06:55;17.20;99.90
17565;DHT22;62994;52.126;5.596;2023-08-06T05:09:27;17.20;99.90
17565;DHT22;62994;52.126;5.596;2023-08-06T05:12:00;17.20;99.90
17565;DHT22;62994;52.126;5.596;2023-08-06T05:14:29;17.20;99.90
17565;DHT22;62994;52.126;5.596;2023-08-06T05:16:58;17.20;99.90
17565;DHT22;62994;52.126;5.596;2023-08-06T05:19:25;17.20;99.90
17565;DHT22;62994;52.126;5.596;2023-08-06T05:21:52;17.20;99.90
17565;DHT22;62994;52.126;5.596;2023-08-06T05:24:19;17.30;99.90
17565;DHT22;62994;52.126;5.596;2023-08-06T05:26:46;17.20;99.90
17565;DHT22;62994;52.126;5.596;2023-08-06T05:29:13;17.30;99.90
17565;DHT22;62994;52.126;5.596;2023-08-06T05:31:40;17.30;99.90
17565;DHT22;62994;52.126;5.596;2023-08-06T05:34:08;17.20;99.90
17565;DHT22;62994;52.126;5.596;2023-08-06T05:36:35;17.30;99.90
17565;DHT22;62994;52.126;5.596;2023-08-06T05:39:03;17.30;99.90
17565;DHT22;62994;52.126;5.596;2023-08-06T05:41:30;17.30;99.90
17565;DHT22;62994;52.126;5.596;2023-08-06T05:43:57;17.30;99.90
17565;DHT22;62994;52.126;5.596;2023-08-06T05:46:25;17.30;99.90
17565;DHT22;62994;52.126;5.596;2023-08-06T05:48:54;17.40;99.90
17565;DHT22;62994;52.126;5.596;2023-08-06T05:51:25;17.40;99.90
17565;DHT22;62994;52.126;5.596;2023-08-06T05:53:52;17.40;99.90
17565;DHT22;62994;52.126;5.596;2023-08-06T05:56:19;17.40;99.90
17565;DHT22;62994;52.126;5.596;2023-08-06T05:58:46;17.40;99.90
17565;DHT22;62994;52.126;5.596;2023-08-06T06:01:16;17.40;99.90
17565;DHT22;62994;52.126;5.596;2023-08-06T06:03:43;17.40;99.90
17565;DHT22;62994;52.126;5.596;2023-08-06T06:06:15;17.40;99.90
17565;DHT22;62994;52.126;5.596;2023-08-06T06:08:45;17.40;99.90
17565;DHT22;62994;52.126;5.596;2023-08-06T06:11:12;17.40;99.90
17565;DHT22;62994;52.126;5.596;2023-08-06T06:13:41;17.40;99.90
17565;DHT22;62994;52.126;5.596;2023-08-06T06:16:08;17.40;99.90
17565;DHT22;62994;52.126;5.596;2023-08-06T06:18:37;17.40;99.90
17565;DHT22;62994;52.126;5.596;2023-08-06T06:21:06;17.40;99.90
17565;DHT22;62994;52.126;5.596;2023-08-06T06:23:33;17.50;99.90
17565;DHT22;62994;52.126;5.596;2023-08-06T06:26:03;17.40;99.90
17565;DHT22;62994;52.126;5.596;2023-08-06T06:28:32;17.40;99.90
17565;DHT22;62994;52.126;5.596;2023-08-06T06:31:00;17.40;99.90
17565;DHT22;62994;52.126;5.596;2023-08-06T06:33:27;17.40;99.90
17565;DHT22;62994;52.126;5.596;2023-08-06T06:35:54;17.50;99.90
17565;DHT22;62994;52.126;5.596;2023-08-06T06:38:21;17.40;99.90
17565;DHT22;62994;52.126;5.596;2023-08-06T06:40:54;17.40;99.90
17565;DHT22;62994;52.126;5.596;2023-08-06T06:43:22;17.40;99.90
17565;DHT22;62994;52.126;5.596;2023-08-06T06:45:56;17.40;99.90
17565;DHT22;62994;52.126;5.596;2023-08-06T06:48:25;17.40;99.90
17565;DHT22;62994;52.126;5.596;2023-08-06T06:50:52;17.40;99.90
17565;DHT22;62994;52.126;5.596;2023-08-06T06:53:19;17.50;99.90
17565;DHT22;62994;52.126;5.596;2023-08-06T06:55:47;17.50;99.90
17565;DHT22;62994;52.126;5.596;2023-08-06T06:58:19;17.50;99.90
17565;DHT22;62994;52.126;5.596;2023-08-06T07:00:53;17.50;99.90
17565;DHT22;62994;52.126;5.596;2023-08-06T07:03:20;17.50;99.90
17565;DHT22;62994;52.126;5.596;2023-08-06T07:05:47;17.50;99.90
17565;DHT22;62994;52.126;5.596;2023-08-06T07:08:14;17.50;99.90
17565;DHT22;62994;52.126;5.596;2023-08-06T07:10:42;17.50;99.90
17565;DHT22;62994;52.126;5.596;2023-08-06T07:13:09;17.50;99.90
17565;DHT22;62994;52.126;5.596;2023-08-06T07:15:37;17.50;99.90
17565;DHT22;62994;52.126;5.596;2023-08-06T07:18:08;17.50;99.90
17565;DHT22;62994;52.126;5.596;2023-08-06T07:20:35;17.50;99.90
17565;DHT22;62994;52.126;5.596;2023-08-06T07:23:02;17.50;99.90
17565;DHT22;62994;52.126;5.596;2023-08-06T07:25:29;17.50;99.90
17565;DHT22;62994;52.126;5.596;2023-08-06T07:27:56;17.60;99.90
17565;DHT22;62994;52.126;5.596;2023-08-06T07:30:23;17.60;99.90
17565;DHT22;62994;52.126;5.596;2023-08-06T07:32:50;17.60;99.90
17565;DHT22;62994;52.126;5.596;2023-08-06T07:35:18;17.50;99.90
17565;DHT22;62994;52.126;5.596;2023-08-06T07:37:48;17.60;99.90
17565;DHT22;62994;52.126;5.596;2023-08-06T07:40:15;17.60;99.90
17565;DHT22;62994;52.126;5.596;2023-08-06T07:42:42;17.60;99.90
17565;DHT22;62994;52.126;5.596;2023-08-06T07:45:10;17.60;99.90
17565;DHT22;62994;52.126;5.596;2023-08-06T07:47:37;17.60;99.90
17565;DHT22;62994;52.126;5.596;2023-08-06T07:50:10;17.60;99.90
17565;DHT22;62994;52.126;5.596;2023-08-06T07:52:39;17.70;99.90
17565;DHT22;62994;52.126;5.596;2023-08-06T07:55:12;17.60;99.90
17565;DHT22;62994;52.126;5.596;2023-08-06T07:57:50;17.70;99.90
17565;DHT22;62994;52.126;5.596;2023-08-06T08:00:22;17.70;99.90
17565;DHT22;62994;52.126;5.596;2023-08-06T08:02:50;17.80;99.90
17565;DHT22;62994;52.126;5.596;2023-08-06T08:05:22;17.80;99.90
17565;DHT22;62994;52.126;5.596;2023-08-06T08:07:51;17.90;99.90
17565;DHT22;62994;52.126;5.596;2023-08-06T08:10:18;17.80;99.90
17565;DHT22;62994;52.126;5.596;2023-08-06T08:12:45;17.80;99.90
17565;DHT22;62994;52.126;5.596;2023-08-06T08:15:22;17.80;99.90
17565;DHT22;62994;52.126;5.596;2023-08-06T08:17:53;17.90;99.90
17565;DHT22;62994;52.126;5.596;2023-08-06T08:20:21;17.90;99.90
17565;DHT22;62994;52.126;5.596;2023-08-06T08:22:48;17.90;99.90
17565;DHT22;62994;52.126;5.596;2023-08-06T08:25:19;17.90;99.90
17565;DHT22;62994;52.126;5.596;2023-08-06T08:27:58;18.00;99.90
17565;DHT22;62994;52.126;5.596;2023-08-06T08:30:25;18.00;99.90
17565;DHT22;62994;52.126;5.596;2023-08-06T08:32:52;18.00;99.90
17565;DHT22;62994;52.126;5.596;2023-08-06T08:35:26;18.00;99.90
17565;DHT22;62994;52.126;5.596;2023-08-06T08:37:52;18.10;99.90
17565;DHT22;62994;52.126;5.596;2023-08-06T08:40:23;18.10;99.90
17565;DHT22;62994;52.126;5.596;2023-08-06T08:42:54;18.10;99.90
17565;DHT22;62994;52.126;5.596;2023-08-06T08:45:22;18.10;99.90
17565;DHT22;62994;52.126;5.596;2023-08-06T08:47:52;18.20;99.90
17565;DHT22;62994;52.126;5.596;2023-08-06T08:50:20;18.20;99.90
17565;DHT22;62994;52.126;5.596;2023-08-06T08:52:50;18.20;99.90
17565;DHT22;62994;52.126;5.596;2023-08-06T08:55:18;18.30;99.90
17565;DHT22;62994;52.126;5.596;2023-08-06T08:57:48;18.30;99.90
17565;DHT22;62994;52.126;5.596;2023-08-06T09:00:15;18.40;99.90
17565;DHT22;62994;52.126;5.596;2023-08-06T09:02:45;18.40;99.90
17565;DHT22;62994;52.126;5.596;2023-08-06T09:05:13;18.50;99.90
17565;DHT22;62994;52.126;5.596;2023-08-06T09:07:42;18.60;99.90
17565;DHT22;62994;52.126;5.596;2023-08-06T09:10:11;18.60;99.90
17565;DHT22;62994;52.126;5.596;2023-08-06T09:12:41;18.70;99.90
17565;DHT22;62994;52.126;5.596;2023-08-06T09:15:10;18.70;99.90
17565;DHT22;62994;52.126;5.596;2023-08-06T09:17:37;18.70;99.90
17565;DHT22;62994;52.126;5.596;2023-08-06T09:20:14;18.70;99.90
17565;DHT22;62994;52.126;5.596;2023-08-06T09:22:41;18.70;99.90
17565;DHT22;62994;52.126;5.596;2023-08-06T09:25:10;18.70;99.90
17565;DHT22;62994;52.126;5.596;2023-08-06T09:27:39;18.80;99.90
17565;DHT22;62994;52.126;5.596;2023-08-06T09:30:07;18.70;99.90
17565;DHT22;62994;52.126;5.596;2023-08-06T09:32:48;18.80;99.90
17565;DHT22;62994;52.126;5.596;2023-08-06T09:35:17;18.70;99.90
17565;DHT22;62994;52.126;5.596;2023-08-06T09:37:44;18.70;99.90
17565;DHT22;62994;52.126;5.596;2023-08-06T09:40:28;18.60;99.90
17565;DHT22;62994;52.126;5.596;2023-08-06T09:42:55;18.50;99.90
17565;DHT22;62994;52.126;5.596;2023-08-06T09:45:23;18.50;99.90
17565;DHT22;62994;52.126;5.596;2023-08-06T09:47:55;18.40;99.90
17565;DHT22;62994;52.126;5.596;2023-08-06T09:50:22;18.40;99.90
17565;DHT22;62994;52.126;5.596;2023-08-06T09:52:50;18.30;99.90
17565;DHT22;62994;52.126;5.596;2023-08-06T09:55:18;18.30;99.90
17565;DHT22;62994;52.126;5.596;2023-08-06T09:57:47;18.10;99.90
17565;DHT22;62994;52.126;5.596;2023-08-06T10:00:14;18.10;99.90
17565;DHT22;62994;52.126;5.596;2023-08-06T10:02:43;18.00;99.90
17565;DHT22;62994;52.126;5.596;2023-08-06T10:05:12;18.00;99.90
17565;DHT22;62994;52.126;5.596;2023-08-06T10:07:39;17.90;99.90
17565;DHT22;62994;52.126;5.596;2023-08-06T10:10:09;17.90;99.90
17565;DHT22;62994;52.126;5.596;2023-08-06T10:12:39;17.80;99.90
17565;DHT22;62994;52.126;5.596;2023-08-06T10:15:14;17.80;99.90
17565;DHT22;62994;52.126;5.596;2023-08-06T10:17:45;17.80;99.90
17565;DHT22;62994;52.126;5.596;2023-08-06T10:20:15;17.70;99.90
17565;DHT22;62994;52.126;5.596;2023-08-06T10:22:43;17.70;99.90
17565;DHT22;62994;52.126;5.596;2023-08-06T10:25:11;17.60;99.90
17565;DHT22;62994;52.126;5.596;2023-08-06T10:27:54;17.60;99.90
17565;DHT22;62994;52.126;5.596;2023-08-06T10:30:23;17.50;99.90
17565;DHT22;62994;52.126;5.596;2023-08-06T10:32:51;17.50;99.90
17565;DHT22;62994;52.126;5.596;2023-08-06T10:35:30;17.50;99.90
17565;DHT22;62994;52.126;5.596;2023-08-06T10:38:04;17.40;99.90
17565;DHT22;62994;52.126;5.596;2023-08-06T10:40:35;17.40;99.90
17565;DHT22;62994;52.126;5.596;2023-08-06T10:43:03;17.30;99.90
17565;DHT22;62994;52.126;5.596;2023-08-06T10:45:35;17.30;99.90
17565;DHT22;62994;52.126;5.596;2023-08-06T10:48:02;17.30;99.90
17565;DHT22;62994;52.126;5.596;2023-08-06T10:50:37;17.30;99.90
17565;DHT22;62994;52.126;5.596;2023-08-06T10:53:05;17.30;99.90
17565;DHT22;62994;52.126;5.596;2023-08-06T10:55:34;17.20;99.90
17565;DHT22;62994;52.126;5.596;2023-08-06T10:58:08;17.20;99.90
17565;DHT22;62994;52.126;5.596;2023-08-06T11:00:42;17.20;99.90
17565;DHT22;62994;52.126;5.596;2023-08-06T11:03:10;17.20;99.90
17565;DHT22;62994;52.126;5.596;2023-08-06T11:05:41;17.20;99.90
17565;DHT22;62994;52.126;5.596;2023-08-06T11:08:23;17.20;99.90
17565;DHT22;62994;52.126;5.596;2023-08-06T11:10:51;17.20;99.90
17565;DHT22;62994;52.126;5.596;2023-08-06T11:13:20;17.20;99.90
17565;DHT22;62994;52.126;5.596;2023-08-06T11:15:49;17.10;99.90
17565;DHT22;62994;52.126;5.596;2023-08-06T11:18:28;17.10;99.90
17565;DHT22;62994;52.126;5.596;2023-08-06T11:20:58;17.00;99.90
17565;DHT22;62994;52.126;5.596;2023-08-06T11:23:26;17.00;99.90
17565;DHT22;62994;52.126;5.596;2023-08-06T11:25:53;16.90;99.90
17565;DHT22;62994;52.126;5.596;2023-08-06T11:28:22;16.90;99.90
17565;DHT22;62994;52.126;5.596;2023-08-06T11:30:49;16.80;99.90
17565;DHT22;62994;52.126;5.596;2023-08-06T11:33:25;16.80;99.90
17565;DHT22;62994;52.126;5.596;2023-08-06T11:35:59;16.80;99.90
17565;DHT22;62994;52.126;5.596;2023-08-06T11:38:35;16.70;99.90
17565;DHT22;62994;52.126;5.596;2023-08-06T11:41:04;16.80;99.90
17565;DHT22;62994;52.126;5.596;2023-08-06T11:43:33;16.70;99.90
17565;DHT22;62994;52.126;5.596;2023-08-06T11:46:02;16.80;99.90
17565;DHT22;62994;52.126;5.596;2023-08-06T11:48:29;16.80;99.90
17565;DHT22;62994;52.126;5.596;2023-08-06T11:50:56;16.80;99.90
17565;DHT22;62994;52.126;5.596;2023-08-06T11:53:31;16.90;99.90
17565;DHT22;62994;52.126;5.596;2023-08-06T11:56:03;16.90;99.90
17565;DHT22;62994;52.126;5.596;2023-08-06T11:58:32;17.00;99.90
17565;DHT22;62994;52.126;5.596;2023-08-06T12:01:03;17.00;99.90
17565;DHT22;62994;52.126;5.596;2023-08-06T12:03:38;17.00;99.90
17565;DHT22;62994;52.126;5.596;2023-08-06T12:06:21;17.00;99.90
17565;DHT22;62994;52.126;5.596;2023-08-06T12:08:49;17.00;99.90
17565;DHT22;62994;52.126;5.596;2023-08-06T12:11:16;17.10;99.90
17565;DHT22;62994;52.126;5.596;2023-08-06T12:13:44;17.10;99.90
17565;DHT22;62994;52.126;5.596;2023-08-06T12:16:13;17.10;99.90
17565;DHT22;62994;52.126;5.596;2023-08-06T12:18:41;17.10;99.90
17565;DHT22;62994;52.126;5.596;2023-08-06T12:21:14;17.20;99.90
17565;DHT22;62994;52.126;5.596;2023-08-06T12:23:43;17.20;99.90
17565;DHT22;62994;52.126;5.596;2023-08-06T12:26:11;17.20;99.90
17565;DHT22;62994;52.126;5.596;2023-08-06T12:28:41;17.20;99.90
17565;DHT22;62994;52.126;5.596;2023-08-06T12:31:08;17.20;99.90
17565;DHT22;62994;52.126;5.596;2023-08-06T12:33:35;17.20;99.90
17565;DHT22;62994;52.126;5.596;2023-08-06T12:36:03;17.20;99.90
17565;DHT22;62994;52.126;5.596;2023-08-06T12:38:30;17.20;99.90
17565;DHT22;62994;52.126;5.596;2023-08-06T12:41:04;17.20;99.90
17565;DHT22;62994;52.126;5.596;2023-08-06T12:43:32;17.30;99.90
17565;DHT22;62994;52.126;5.596;2023-08-06T12:45:59;17.30;99.90
17565;DHT22;62994;52.126;5.596;2023-08-06T12:48:36;17.40;99.90
17565;DHT22;62994;52.126;5.596;2023-08-06T12:51:03;17.40;99.90
17565;DHT22;62994;52.126;5.596;2023-08-06T12:53:32;17.40;99.90
17565;DHT22;62994;52.126;5.596;2023-08-06T12:56:00;17.40;99.90
17565;DHT22;62994;52.126;5.596;2023-08-06T12:58:29;17.40;99.90
17565;DHT22;62994;52.126;5.596;2023-08-06T13:00:57;17.40;99.90
17565;DHT22;62994;52.126;5.596;2023-08-06T13:03:27;17.40;99.90
17565;DHT22;62994;52.126;5.596;2023-08-06T13:05:54;17.40;99.90
17565;DHT22;62994;52.126;5.596;2023-08-06T13:08:21;17.50;99.90
17565;DHT22;62994;52.126;5.596;2023-08-06T13:10:48;17.50;99.90
17565;DHT22;62994;52.126;5.596;2023-08-06T13:13:17;17.40;99.90
17565;DHT22;62994;52.126;5.596;2023-08-06T13:15:51;17.40;99.90
17565;DHT22;62994;52.126;5.596;2023-08-06T13:18:19;17.40;99.90
17565;DHT22;62994;52.126;5.596;2023-08-06T13:20:46;17.40;99.90
17565;DHT22;62994;52.126;5.596;2023-08-06T13:23:15;17.40;99.90
17565;DHT22;62994;52.126;5.596;2023-08-06T13:25:42;17.40;99.90
17565;DHT22;62994;52.126;5.596;2023-08-06T13:28:23;17.30;99.90
17565;DHT22;62994;52.126;5.596;2023-08-06T13:30:50;17.30;99.90
17565;DHT22;62994;52.126;5.596;2023-08-06T13:33:19;17.30;99.90
17565;DHT22;62994;52.126;5.596;2023-08-06T13:35:46;17.30;99.90
17565;DHT22;62994;52.126;5.596;2023-08-06T13:38:15;17.30;99.90
17565;DHT22;62994;52.126;5.596;2023-08-06T13:40:42;17.40;99.90
17565;DHT22;62994;52.126;5.596;2023-08-06T13:43:10;17.40;99.90
17565;DHT22;62994;52.126;5.596;2023-08-06T13:45:37;17.50;99.90
17565;DHT22;62994;52.126;5.596;2023-08-06T13:48:08;17.50;99.90
17565;DHT22;62994;52.126;5.596;2023-08-06T13:50:37;17.60;99.90
17565;DHT22;62994;52.126;5.596;2023-08-06T13:53:04;17.60;99.90
17565;DHT22;62994;52.126;5.596;2023-08-06T13:55:31;17.70;99.90
17565;DHT22;62994;52.126;5.596;2023-08-06T13:57:58;17.70;99.90
17565;DHT22;62994;52.126;5.596;2023-08-06T14:00:25;17.70;99.90
17565;DHT22;62994;52.126;5.596;2023-08-06T14:03:01;17.70;99.90
17565;DHT22;62994;52.126;5.596;2023-08-06T14:05:28;17.80;99.90
17565;DHT22;62994;52.126;5.596;2023-08-06T14:07:57;17.80;99.90
17565;DHT22;62994;52.126;5.596;2023-08-06T14:10:24;17.80;99.90
17565;DHT22;62994;52.126;5.596;2023-08-06T14:12:51;17.80;99.90
17565;DHT22;62994;52.126;5.596;2023-08-06T14:15:18;17.80;99.90
17565;DHT22;62994;52.126;5.596;2023-08-06T14:17:44;17.80;99.90
17565;DHT22;62994;52.126;5.596;2023-08-06T14:20:16;17.80;99.90
17565;DHT22;62994;52.126;5.596;2023-08-06T14:22:43;17.90;99.90
17565;DHT22;62994;52.126;5.596;2023-08-06T14:25:11;17.90;99.90
17565;DHT22;62994;52.126;5.596;2023-08-06T14:27:38;17.90;99.90
17565;DHT22;62994;52.126;5.596;2023-08-06T14:30:07;17.90;99.90
17565;DHT22;62994;52.126;5.596;2023-08-06T14:32:34;18.00;99.90
17565;DHT22;62994;52.126;5.596;2023-08-06T14:35:01;18.00;99.90
17565;DHT22;62994;52.126;5.596;2023-08-06T14:37:28;18.00;99.90
17565;DHT22;62994;52.126;5.596;2023-08-06T14:39:55;18.00;99.90
17565;DHT22;62994;52.126;5.596;2023-08-06T14:42:24;18.00;99.90
17565;DHT22;62994;52.126;5.596;2023-08-06T14:44:51;18.10;99.90
17565;DHT22;62994;52.126;5.596;2023-08-06T14:47:17;18.00;99.90
17565;DHT22;62994;52.126;5.596;2023-08-06T14:49:44;18.10;99.90
17565;DHT22;62994;52.126;5.596;2023-08-06T14:52:16;18.10;99.90
17565;DHT22;62994;52.126;5.596;2023-08-06T14:54:46;18.10;99.90
17565;DHT22;62994;52.126;5.596;2023-08-06T14:57:15;18.20;99.90
17565;DHT22;62994;52.126;5.596;2023-08-06T14:59:43;18.20;99.90
17565;DHT22;62994;52.126;5.596;2023-08-06T15:02:14;18.20;99.90
17565;DHT22;62994;52.126;5.596;2023-08-06T15:04:43;18.20;99.90
17565;DHT22;62994;52.126;5.596;2023-08-06T15:07:21;18.20;99.90
17565;DHT22;62994;52.126;5.596;2023-08-06T15:09:50;18.20;99.90
17565;DHT22;62994;52.126;5.596;2023-08-06T15:12:24;18.20;99.90
17565;DHT22;62994;52.126;5.596;2023-08-06T15:14:59;18.20;99.90
17565;DHT22;62994;52.126;5.596;2023-08-06T15:17:35;18.20;99.90
17565;DHT22;62994;52.126;5.596;2023-08-06T15:20:03;18.20;99.90
17565;DHT22;62994;52.126;5.596;2023-08-06T15:22:36;18.10;99.90
17565;DHT22;62994;52.126;5.596;2023-08-06T15:25:05;18.10;99.90
17565;DHT22;62994;52.126;5.596;2023-08-06T15:27:34;18.10;99.90
17565;DHT22;62994;52.126;5.596;2023-08-06T15:30:12;18.00;99.90
17565;DHT22;62994;52.126;5.596;2023-08-06T15:32:41;17.90;99.90
17565;DHT22;62994;52.126;5.596;2023-08-06T15:35:12;17.90;99.90
17565;DHT22;62994;52.126;5.596;2023-08-06T15:37:44;17.80;99.90
17565;DHT22;62994;52.126;5.596;2023-08-06T15:40:11;17.60;99.90
17565;DHT22;62994;52.126;5.596;2023-08-06T15:42:38;17.50;99.90